createdAt,value
2022-09-23T00:01:14.967Z,12.27
2022-09-23T00:03:47.187Z,12.29
2022-09-23T00:06:22.119Z,12.30
2022-09-23T00:08:50.705Z,12.24
2022-09-23T00:11:20.251Z,12.16
2022-09-23T00:13:49.896Z,12.22
2022-09-23T00:16:25.777Z,12.19
2022-09-23T00:18:52.962Z,12.17
2022-09-23T00:21:21.991Z,12.03
2022-09-23T00:23:49.813Z,12.07
2022-09-23T00:26:20.531Z,12.14
2022-09-23T00:28:48.926Z,12.13
2022-09-23T00:31:22.668Z,12.10
2022-09-23T00:33:59.312Z,12.07
2022-09-23T00:36:28.340Z,12.07
2022-09-23T00:38:56.296Z,12.15
2022-09-23T00:41:24.976Z,12.09
2022-09-23T00:44:00.510Z,12.16
2022-09-23T00:46:35.756Z,11.99
2022-09-23T00:49:29.727Z,12.13
2022-09-23T00:52:06.432Z,11.99
2022-09-23T00:54:34.051Z,11.94
2022-09-23T00:57:03.886Z,11.97
2022-09-23T00:59:31.050Z,11.96
2022-09-23T01:02:00.394Z,11.86
2022-09-23T01:04:29.802Z,11.90
2022-09-23T01:06:56.793Z,11.88
2022-09-23T01:09:25.264Z,11.90
2022-09-23T01:12:22.710Z,11.89
2022-09-23T01:15:15.989Z,11.86
2022-09-23T01:18:11.211Z,11.82
2022-09-23T01:21:22.676Z,11.82
2022-09-23T01:24:23.807Z,11.67
2022-09-23T01:27:14.718Z,11.65
2022-09-23T01:30:05.304Z,11.70
2022-09-23T01:32:37.941Z,11.57
2022-09-23T01:35:22.607Z,11.62
2022-09-23T01:38:07.739Z,11.59
2022-09-23T01:40:59.306Z,11.59
2022-09-23T01:43:37.592Z,11.55
2022-09-23T01:46:17.610Z,11.53
2022-09-23T01:49:08.980Z,11.54
2022-09-23T01:51:48.087Z,11.56
2022-09-23T01:55:08.652Z,11.54
2022-09-23T01:57:46.933Z,11.52
2022-09-23T02:00:21.301Z,11.55
2022-09-23T02:03:01.485Z,11.62
2022-09-23T02:05:44.732Z,11.55
2022-09-23T02:08:56.538Z,11.64
2022-09-23T02:11:24.060Z,11.64
2022-09-23T02:14:21.902Z,11.66
2022-09-23T02:16:56.050Z,11.67
2022-09-23T02:19:43.231Z,11.79
2022-09-23T02:22:30.806Z,11.74
2022-09-23T02:24:58.881Z,11.78
2022-09-23T02:27:34.666Z,11.72
2022-09-23T02:30:20.710Z,11.80
2022-09-23T02:33:05.309Z,11.77
2022-09-23T02:36:02.522Z,11.80
2022-09-23T02:38:44.558Z,11.77
2022-09-23T02:41:17.371Z,11.67
2022-09-23T02:43:53.876Z,11.63
2022-09-23T02:46:21.794Z,11.56
2022-09-23T02:49:01.168Z,11.41
2022-09-23T02:51:34.452Z,11.32
2022-09-23T02:54:03.546Z,11.28
2022-09-23T02:56:30.557Z,11.24
2022-09-23T02:58:58.022Z,11.23
2022-09-23T03:01:49.519Z,11.19
2022-09-23T03:04:55.269Z,11.15
2022-09-23T03:07:42.963Z,11.05
2022-09-23T03:10:30.380Z,11.01
2022-09-23T03:13:06.168Z,10.93
2022-09-23T03:16:12.348Z,10.93
2022-09-23T03:19:01.529Z,11.01
2022-09-23T03:21:44.994Z,10.93
2022-09-23T03:24:14.420Z,10.90
2022-09-23T03:26:47.404Z,10.89
2022-09-23T03:29:16.237Z,10.88
2022-09-23T03:31:44.677Z,10.85
2022-09-23T03:34:28.242Z,10.85
2022-09-23T03:37:07.526Z,10.82
2022-09-23T03:39:57.770Z,10.82
2022-09-23T03:42:30.128Z,10.75
2022-09-23T03:44:59.394Z,10.74
2022-09-23T03:47:28.701Z,10.70
2022-09-23T03:49:57.961Z,10.69
2022-09-23T03:52:26.427Z,10.75
2022-09-23T03:54:53.669Z,10.70
2022-09-23T03:57:22.234Z,10.72
2022-09-23T03:59:50.718Z,10.69
2022-09-23T04:02:19.846Z,10.67
2022-09-23T04:04:47.358Z,10.67
2022-09-23T04:07:15.051Z,10.67
2022-09-23T04:09:42.270Z,10.74
2022-09-23T04:12:15.091Z,10.71
2022-09-23T04:14:43.132Z,10.66
2022-09-23T04:17:10.989Z,10.66
2022-09-23T04:19:38.647Z,10.66
2022-09-23T04:22:06.649Z,10.67
2022-09-23T04:24:35.625Z,10.72
2022-09-23T04:27:02.721Z,10.67
2022-09-23T04:29:29.868Z,10.65
2022-09-23T04:31:57.844Z,10.65
2022-09-23T04:34:24.910Z,10.70
2022-09-23T04:36:52.028Z,10.69
2022-09-23T04:39:19.533Z,10.68
2022-09-23T04:41:46.673Z,10.71
2022-09-23T04:44:14.819Z,10.76
2022-09-23T04:46:43.894Z,10.78
2022-09-23T04:49:11.146Z,10.77
2022-09-23T04:51:38.057Z,10.76
2022-09-23T04:54:05.147Z,10.80
2022-09-23T04:56:32.935Z,10.81
2022-09-23T04:59:01.780Z,10.76
2022-09-23T05:01:34.448Z,10.81
2022-09-23T05:04:05.404Z,10.74
2022-09-23T05:06:36.282Z,10.79
2022-09-23T05:09:07.682Z,10.80
2022-09-23T05:11:35.794Z,10.80
2022-09-23T05:14:03.399Z,10.76
2022-09-23T05:16:30.612Z,10.78
2022-09-23T05:18:58.177Z,10.85
2022-09-23T05:21:30.259Z,10.84
2022-09-23T05:24:01.445Z,10.88
2022-09-23T05:26:31.624Z,10.89
2022-09-23T05:28:59.985Z,10.90
2022-09-23T05:31:29.983Z,10.94
2022-09-23T05:34:04.722Z,10.93
2022-09-23T05:36:38.228Z,10.94
2022-09-23T05:39:08.055Z,10.96
2022-09-23T05:41:35.942Z,10.90
2022-09-23T05:44:03.336Z,10.89
2022-09-23T05:46:31.786Z,11.00
2022-09-23T05:49:03.023Z,11.05
2022-09-23T05:51:35.739Z,11.06
2022-09-23T05:54:04.651Z,11.07
2022-09-23T05:56:33.525Z,11.15
2022-09-23T05:59:02.254Z,11.21
2022-09-23T06:01:34.124Z,11.31
2022-09-23T06:04:06.021Z,11.37
2022-09-23T06:06:42.092Z,11.47
2022-09-23T06:09:16.121Z,11.62
2022-09-23T06:11:43.304Z,11.59
2022-09-23T06:14:14.729Z,11.68
2022-09-23T06:16:43.042Z,11.83
2022-09-23T06:19:10.545Z,11.92
2022-09-23T06:21:40.727Z,11.96
2022-09-23T06:24:09.368Z,12.04
2022-09-23T06:26:37.944Z,12.16
2022-09-23T06:29:11.817Z,12.25
2022-09-23T06:31:40.683Z,12.39
2022-09-23T06:34:13.475Z,12.49
2022-09-23T06:36:45.366Z,12.54
2022-09-23T06:39:20.529Z,12.64
2022-09-23T06:41:47.645Z,12.76
2022-09-23T06:44:15.157Z,12.86
2022-09-23T06:46:42.878Z,12.96
2022-09-23T06:49:11.890Z,12.96
2022-09-23T06:51:40.388Z,13.10
2022-09-23T06:54:17.106Z,13.17
2022-09-23T06:56:51.184Z,13.23
2022-09-23T06:59:21.463Z,13.26
2022-09-23T07:01:51.623Z,13.36
2022-09-23T07:04:20.216Z,13.52
2022-09-23T07:06:47.858Z,13.72
2022-09-23T07:09:18.545Z,13.83
2022-09-23T07:11:47.706Z,13.95
2022-09-23T07:14:15.184Z,14.05
2022-09-23T07:16:44.976Z,14.21
2022-09-23T07:19:19.646Z,14.38
2022-09-23T07:21:47.160Z,14.63
2022-09-23T07:24:19.963Z,14.69
2022-09-23T07:27:00.177Z,14.80
2022-09-23T07:29:46.113Z,15.01
2022-09-23T07:35:39.603Z,15.33
2022-09-23T07:38:30.411Z,15.53
2022-09-23T07:41:05.982Z,15.57
2022-09-23T07:44:37.613Z,15.64
2022-09-23T07:47:35.681Z,15.84
2022-09-23T07:50:17.936Z,15.95
2022-09-23T07:53:03.526Z,16.26
2022-09-23T07:55:38.346Z,16.32
2022-09-23T07:58:17.124Z,16.30
2022-09-23T08:01:00.463Z,16.38
2022-09-23T08:03:36.147Z,16.49
2022-09-23T08:06:14.201Z,16.78
2022-09-23T08:08:45.986Z,16.70
2022-09-23T08:11:14.384Z,16.92
2022-09-23T08:13:42.686Z,17.03
2022-09-23T08:16:10.768Z,17.08
2022-09-23T08:18:47.478Z,17.22
2022-09-23T08:21:30.081Z,17.27
2022-09-23T08:24:06.247Z,17.24
2022-09-23T08:26:46.267Z,17.45
2022-09-23T08:29:20.396Z,17.61
2022-09-23T08:31:54.819Z,17.66
2022-09-23T08:34:40.092Z,17.83
2022-09-23T08:37:18.840Z,17.90
2022-09-23T08:40:07.725Z,18.02
2022-09-23T08:42:52.249Z,17.94
2022-09-23T08:45:29.821Z,18.07
2022-09-23T08:48:19.449Z,18.24
2022-09-23T08:51:16.648Z,18.29
2022-09-23T08:54:02.465Z,18.39
2022-09-23T08:56:47.360Z,18.44
2022-09-23T08:59:51.881Z,18.58
2022-09-23T09:02:22.307Z,18.74
2022-09-23T09:05:10.178Z,18.90
2022-09-23T09:07:42.338Z,19.01
2022-09-23T09:10:33.710Z,19.13
2022-09-23T09:13:36.435Z,19.32
2022-09-23T09:16:59.871Z,19.66
2022-09-23T09:20:03.885Z,19.73
2022-09-23T09:22:52.879Z,20.01
2022-09-23T09:25:47.003Z,20.12
2022-09-23T09:28:59.044Z,20.22
2022-09-23T09:31:46.550Z,20.45
2022-09-23T09:34:44.335Z,20.72
2022-09-23T09:37:41.739Z,20.92
2022-09-23T09:40:14.462Z,21.01
2022-09-23T09:42:46.902Z,21.29
2022-09-23T09:45:21.615Z,21.38
2022-09-23T09:48:13.721Z,21.51
2022-09-23T09:50:52.063Z,21.56
2022-09-23T09:53:32.334Z,21.65
2022-09-23T09:56:10.259Z,21.75
2022-09-23T09:59:08.332Z,21.81
2022-09-23T10:01:36.230Z,21.89
2022-09-23T10:04:33.608Z,21.89
2022-09-23T10:07:27.693Z,21.85
2022-09-23T10:09:55.873Z,21.91
2022-09-23T10:12:49.060Z,21.95
2022-09-23T10:15:33.314Z,22.04
2022-09-23T10:18:02.247Z,22.07
2022-09-23T10:20:38.127Z,22.13
2022-09-23T10:23:14.744Z,22.24
2022-09-23T10:25:42.865Z,22.43
2022-09-23T10:28:52.658Z,22.40
2022-09-23T10:31:30.270Z,22.37
2022-09-23T10:34:04.300Z,22.42
2022-09-23T10:36:33.216Z,22.55
2022-09-23T10:39:22.814Z,22.64
2022-09-23T10:42:36.806Z,22.66
2022-09-23T10:45:43.314Z,22.62
2022-09-23T10:48:36.222Z,22.82
2022-09-23T10:51:26.514Z,22.80
2022-09-23T10:54:23.809Z,22.88
2022-09-23T10:57:42.780Z,22.89
2022-09-23T11:00:27.741Z,23.05
2022-09-23T11:03:43.064Z,23.09
2022-09-23T11:06:25.339Z,23.19
2022-09-23T11:09:13.495Z,23.20
2022-09-23T11:12:14.046Z,23.36
2022-09-23T11:14:53.808Z,23.55
2022-09-23T11:18:00.223Z,23.62
2022-09-23T11:20:59.845Z,23.76
2022-09-23T11:24:34.997Z,23.74
2022-09-23T11:27:20.673Z,23.81
2022-09-23T11:30:08.177Z,23.75
2022-09-23T11:33:20.127Z,23.89
2022-09-23T11:35:56.183Z,24.09
2022-09-23T11:38:44.952Z,24.04
2022-09-23T11:41:32.029Z,24.15
2022-09-23T11:44:24.139Z,24.31
2022-09-23T11:47:02.130Z,24.42
2022-09-23T11:50:25.960Z,24.42
2022-09-23T11:53:02.818Z,24.47
2022-09-23T11:55:57.164Z,24.47
2022-09-23T11:58:33.347Z,24.31
2022-09-23T12:01:37.317Z,24.25
2022-09-23T12:04:14.210Z,24.11
2022-09-23T12:07:24.730Z,24.03
2022-09-23T12:10:05.718Z,23.98
2022-09-23T12:13:10.994Z,23.91
2022-09-23T12:16:09.986Z,24.04
2022-09-23T12:19:21.944Z,24.03
2022-09-23T12:22:13.174Z,24.03
2022-09-23T12:25:24.009Z,23.93
2022-09-23T12:27:55.340Z,23.92
2022-09-23T12:30:32.466Z,23.93
2022-09-23T12:33:41.113Z,23.95
2022-09-23T12:36:12.334Z,24.08
2022-09-23T12:38:46.792Z,24.02
2022-09-23T12:41:41.390Z,24.03
2022-09-23T12:44:12.560Z,24.15
2022-09-23T12:46:47.317Z,24.29
2022-09-23T12:49:30.335Z,24.45
2022-09-23T12:52:12.774Z,24.56
2022-09-23T12:54:42.991Z,24.47
2022-09-23T12:57:34.998Z,24.23
2022-09-23T13:00:17.010Z,24.10
2022-09-23T13:03:15.104Z,23.99
2022-09-23T13:06:19.779Z,24.08
2022-09-23T13:08:49.473Z,24.05
2022-09-23T13:11:29.952Z,24.09
2022-09-23T13:14:02.640Z,24.27
2022-09-23T13:16:45.136Z,24.23
2022-09-23T13:19:34.186Z,24.41
2022-09-23T13:22:34.804Z,24.34
2022-09-23T13:25:18.103Z,24.40
2022-09-23T13:27:51.755Z,24.42
2022-09-23T13:30:26.851Z,24.28
2022-09-23T13:33:21.621Z,24.23
2022-09-23T13:35:51.223Z,24.08
2022-09-23T13:38:28.148Z,23.90
2022-09-23T13:41:20.756Z,23.78
2022-09-23T13:44:00.530Z,23.62
2022-09-23T13:46:43.384Z,23.43
2022-09-23T13:49:24.754Z,23.37
2022-09-23T13:51:55.302Z,23.14
2022-09-23T13:54:46.088Z,22.98
2022-09-23T13:57:32.700Z,22.81
2022-09-23T14:00:21.699Z,22.65
2022-09-23T14:02:49.000Z,22.57
2022-09-23T14:05:30.598Z,22.56
2022-09-23T14:07:57.972Z,22.62
2022-09-23T14:10:27.916Z,22.62
2022-09-23T14:12:57.040Z,22.54
2022-09-23T14:15:24.913Z,22.41
2022-09-23T14:18:00.666Z,22.38
2022-09-23T14:20:28.056Z,22.16
2022-09-23T14:23:13.173Z,22.10
2022-09-23T14:25:45.791Z,22.03
2022-09-23T14:28:26.467Z,21.96
2022-09-23T14:30:57.768Z,21.90
2022-09-23T14:33:39.342Z,21.87
2022-09-23T14:36:37.097Z,21.87
2022-09-23T14:39:26.160Z,21.85
2022-09-23T14:41:54.050Z,21.82
2022-09-23T14:44:30.520Z,21.79
2022-09-23T14:47:01.211Z,21.69
2022-09-23T14:49:32.024Z,21.63
2022-09-23T14:52:06.657Z,21.61
2022-09-23T14:54:42.359Z,21.63
2022-09-23T14:57:31.507Z,21.61
2022-09-23T15:00:14.316Z,21.60
2022-09-23T15:03:12.758Z,21.62
2022-09-23T15:05:52.962Z,21.55
2022-09-23T15:08:27.284Z,21.54
2022-09-23T15:10:55.578Z,21.53
2022-09-23T15:13:34.176Z,21.57
2022-09-23T15:16:02.195Z,21.54
2022-09-23T15:18:39.132Z,21.56
2022-09-23T15:21:17.865Z,21.55
2022-09-23T15:23:48.453Z,21.53
2022-09-23T15:26:25.427Z,21.56
2022-09-23T15:28:56.124Z,21.57
2022-09-23T15:31:27.168Z,21.61
2022-09-23T15:33:55.960Z,21.64
2022-09-23T15:36:27.884Z,21.73
2022-09-23T15:39:08.786Z,21.73
2022-09-23T15:41:35.808Z,21.81
2022-09-23T15:44:17.844Z,21.83
2022-09-23T15:46:51.969Z,21.87
2022-09-23T15:49:41.463Z,21.89
2022-09-23T15:52:12.227Z,21.88
2022-09-23T15:54:39.324Z,21.85
2022-09-23T15:57:06.634Z,21.86
2022-09-23T15:59:33.614Z,21.76
2022-09-23T16:02:05.760Z,21.73
2022-09-23T16:04:33.020Z,21.65
2022-09-23T16:07:01.618Z,21.53
2022-09-23T16:09:31.573Z,21.43
2022-09-23T16:11:58.667Z,21.36
2022-09-23T16:14:25.682Z,21.28
2022-09-23T16:16:53.850Z,21.25
2022-09-23T16:19:20.881Z,21.21
2022-09-23T16:21:48.193Z,21.10
2022-09-23T16:24:18.453Z,21.05
2022-09-23T16:26:47.804Z,20.95
2022-09-23T16:29:15.611Z,20.86
2022-09-23T16:31:43.070Z,20.84
2022-09-23T16:34:10.212Z,20.77
2022-09-23T16:36:43.297Z,20.73
2022-09-23T16:39:13.600Z,20.62
2022-09-23T16:41:48.232Z,20.54
2022-09-23T16:44:16.396Z,20.51
2022-09-23T16:46:43.459Z,20.38
2022-09-23T16:49:12.148Z,20.35
2022-09-23T16:51:39.872Z,20.28
2022-09-23T16:54:12.504Z,20.25
2022-09-23T16:56:46.400Z,20.14
2022-09-23T16:59:15.601Z,20.08
2022-09-23T17:02:01.491Z,20.00
2022-09-23T17:04:28.698Z,19.89
2022-09-23T17:06:56.477Z,19.87
2022-09-23T17:09:29.199Z,19.93
2022-09-23T17:12:13.817Z,19.84
2022-09-23T17:14:40.871Z,19.79
2022-09-23T17:17:09.589Z,19.72
2022-09-23T17:19:38.455Z,19.66
2022-09-23T17:22:05.443Z,19.61
2022-09-23T17:24:32.466Z,19.56
2022-09-23T17:26:59.564Z,19.52
2022-09-23T17:29:26.981Z,19.51
2022-09-23T17:31:54.367Z,19.44
2022-09-23T17:34:21.578Z,19.39
2022-09-23T17:36:48.518Z,19.38
2022-09-23T17:39:17.084Z,19.30
2022-09-23T17:41:45.403Z,19.23
2022-09-23T17:44:12.921Z,19.21
2022-09-23T17:46:39.833Z,19.17
2022-09-23T17:49:08.016Z,19.23
2022-09-23T17:51:35.270Z,19.16
2022-09-23T17:54:02.198Z,19.09
2022-09-23T17:56:33.918Z,19.14
2022-09-23T17:59:01.987Z,19.08
2022-09-23T18:01:29.959Z,19.00
2022-09-23T18:04:00.056Z,18.97
2022-09-23T18:06:32.509Z,18.93
2022-09-23T18:09:03.998Z,18.92
2022-09-23T18:11:38.963Z,18.89
2022-09-23T18:14:19.236Z,18.81
2022-09-23T18:16:53.825Z,18.79
2022-09-23T18:19:26.812Z,18.78
2022-09-23T18:21:57.265Z,18.75
2022-09-23T18:24:32.220Z,18.78
2022-09-23T18:27:01.081Z,18.71
2022-09-23T18:29:28.658Z,18.69
2022-09-23T18:31:56.161Z,18.65
2022-09-23T18:34:23.676Z,18.64
2022-09-23T18:36:50.848Z,18.61
2022-09-23T18:39:18.008Z,18.60
2022-09-23T18:41:44.954Z,18.58
2022-09-23T18:44:12.057Z,18.55
2022-09-23T18:46:39.022Z,18.55
2022-09-23T18:49:24.909Z,18.54
2022-09-23T18:51:57.596Z,18.53
2022-09-23T18:54:28.146Z,18.52
2022-09-23T18:56:55.872Z,18.51
2022-09-23T18:59:26.285Z,18.49
2022-09-23T19:01:56.863Z,18.44
2022-09-23T19:04:26.282Z,18.42
2022-09-23T19:06:56.323Z,18.39
2022-09-23T19:09:23.685Z,18.38
2022-09-23T19:11:52.516Z,18.33
2022-09-23T19:14:19.893Z,18.31
2022-09-23T19:16:49.079Z,18.23
2022-09-23T19:19:16.420Z,18.18
2022-09-23T19:21:43.404Z,18.14
2022-09-23T19:24:15.598Z,18.18
2022-09-23T19:26:44.160Z,18.01
2022-09-23T19:29:17.144Z,17.89
2022-09-23T19:31:44.388Z,17.96
2022-09-23T19:34:29.011Z,17.87
2022-09-23T19:36:57.869Z,17.81
2022-09-23T19:39:28.505Z,17.78
2022-09-23T19:41:56.133Z,17.73
2022-09-23T19:44:25.364Z,17.77
2022-09-23T19:46:56.297Z,17.85
2022-09-23T19:49:24.973Z,17.81
2022-09-23T19:51:55.256Z,17.81
2022-09-23T19:54:22.695Z,17.83
2022-09-23T19:56:50.380Z,17.70
2022-09-23T19:59:19.372Z,17.44
2022-09-23T20:01:48.247Z,17.41
2022-09-23T20:04:16.629Z,17.37
2022-09-23T20:06:45.864Z,17.38
2022-09-23T20:09:13.041Z,17.27
2022-09-23T20:11:42.969Z,17.28
2022-09-23T20:14:11.016Z,17.24
2022-09-23T20:16:38.470Z,17.33
2022-09-23T20:19:05.941Z,17.51
2022-09-23T20:21:33.835Z,17.45
2022-09-23T20:24:02.319Z,17.35
2022-09-23T20:26:48.147Z,17.37
2022-09-23T20:29:15.105Z,17.20
2022-09-23T20:31:42.299Z,17.13
2022-09-23T20:34:10.689Z,17.06
2022-09-23T20:36:39.545Z,17.08
2022-09-23T20:39:07.194Z,16.94
2022-09-23T20:41:38.139Z,16.89
2022-09-23T20:44:14.471Z,16.85
2022-09-23T20:46:48.233Z,16.80
2022-09-23T20:49:17.741Z,16.83
2022-09-23T20:51:45.160Z,16.83
2022-09-23T20:54:12.294Z,16.78
2022-09-23T20:56:39.438Z,16.82
2022-09-23T20:59:07.082Z,16.86
2022-09-23T21:01:37.125Z,16.93
2022-09-23T21:04:05.729Z,16.91
2022-09-23T21:06:36.749Z,16.94
2022-09-23T21:09:06.053Z,16.94
2022-09-23T21:11:33.945Z,16.98
2022-09-23T21:14:01.513Z,17.06
2022-09-23T21:16:29.125Z,17.05
2022-09-23T21:18:57.678Z,17.05
2022-09-23T21:21:25.607Z,17.08
2022-09-23T21:23:52.630Z,17.13
2022-09-23T21:26:25.726Z,17.10
2022-09-23T21:28:57.587Z,16.97
2022-09-23T21:31:34.604Z,17.00
2022-09-23T21:34:05.163Z,16.99
2022-09-23T21:36:38.266Z,17.07
2022-09-23T21:39:07.808Z,16.89
2022-09-23T21:41:35.007Z,16.86
2022-09-23T21:44:04.468Z,16.88
2022-09-23T21:46:35.719Z,16.93
2022-09-23T21:49:04.055Z,16.84
2022-09-23T21:51:42.783Z,16.82
2022-09-23T21:54:16.779Z,16.81
2022-09-23T21:56:44.712Z,16.83
2022-09-23T21:59:11.827Z,16.81
2022-09-23T22:01:44.470Z,16.79
2022-09-23T22:04:18.755Z,16.77
2022-09-23T22:06:46.800Z,16.72
2022-09-23T22:09:21.070Z,16.73
2022-09-23T22:12:09.609Z,16.67
2022-09-23T22:14:38.830Z,16.66
2022-09-23T22:17:10.837Z,16.58
2022-09-23T22:19:44.352Z,16.55
2022-09-23T22:22:17.379Z,16.57
2022-09-23T22:24:46.932Z,16.58
2022-09-23T22:27:17.776Z,16.60
2022-09-23T22:30:03.207Z,16.60
2022-09-23T22:32:43.637Z,16.55
2022-09-23T22:35:17.717Z,16.60
2022-09-23T22:37:45.980Z,16.69
2022-09-23T22:40:15.368Z,16.68
2022-09-23T22:42:43.615Z,16.67
2022-09-23T22:45:12.468Z,16.68
2022-09-23T22:47:42.012Z,16.68
2022-09-23T22:50:09.992Z,16.68
2022-09-23T22:52:37.833Z,16.67
2022-09-23T22:55:08.034Z,16.68
2022-09-23T22:57:35.495Z,16.60
2022-09-23T23:00:08.411Z,16.63
2022-09-23T23:02:35.599Z,16.64
2022-09-23T23:05:02.875Z,16.67
2022-09-23T23:07:29.839Z,16.66
2022-09-23T23:09:56.988Z,16.67
2022-09-23T23:12:24.208Z,16.67
2022-09-23T23:14:51.399Z,16.61
2022-09-23T23:17:18.919Z,16.63
2022-09-23T23:19:47.458Z,16.60
2022-09-23T23:22:14.394Z,16.52
2022-09-23T23:24:41.316Z,16.44
2022-09-23T23:27:08.638Z,16.41
2022-09-23T23:29:35.773Z,16.40
2022-09-23T23:32:02.938Z,16.41
2022-09-23T23:34:30.210Z,16.39
2022-09-23T23:36:57.539Z,16.37
2022-09-23T23:39:25.818Z,16.29
2022-09-23T23:41:57.172Z,16.27
2022-09-23T23:44:26.466Z,16.21
2022-09-23T23:46:54.641Z,16.11
2022-09-23T23:49:24.563Z,16.08
2022-09-23T23:51:51.597Z,16.02
2022-09-23T23:54:18.583Z,15.97
2022-09-23T23:56:45.705Z,15.94
2022-09-23T23:59:12.962Z,15.92
